Latest Coastal Weather Observations for Cape Moreton

IDQ60701

Issued at 4:31 am EST Saturday 31 January 2015 (issued every 10 minutes, with the page automatically refreshed every 10 minutes)

About coastal observations | Map of coastal stations | Coastal observations for QLD | Marine services | Other Formats
Station Details ID: 040043 Name: CAPE MORETON LIGHTHOUSE Lat: -27.03 Lon: 153.47 Height: 99.9 m
Data from the previous 72 hours. | See also: Recent months at Cape Moreton
Date/Time
EST
Temp

°C
Wind Pressure Rain
since 9am
mm
Weather Cloud Vis
km
Sea
Height
m
Swell
Dir
 
Speed
knots
Gust
knots
hPa Trend Height
m
Period
s
Dir
31/04:30am 23.4 NW 12 16 1006.5 - 0.0 - - - - - - -
31/04:00am 23.6 NW 15 19 1006.4 - 0.0 - - - - - - -
31/03:30am 23.7 NNW 14 19 1006.2 - 0.0 - - - - - - -
31/03:00am 23.8 NNW 13 18 1006.1 - 0.0 - - - - - - -
31/02:30am 23.6 NNW 14 20 1006.0 - 0.0 - - - - - - -
31/02:00am 23.6 NW 15 18 1006.2 - 0.0 - - - - - - -
31/01:30am 23.7 NNW 13 18 1006.5 - 0.0 - - - - - - -
31/01:00am 23.9 NNW 14 18 1006.7 - 0.0 - - - - - - -
31/12:30am 24.1 NNW 13 17 1007.2 - 0.0 - - - - - - -
31/12:00am 24.1 NNW 15 18 1007.5 - 0.0 - - - - - - -
 
Date/Time
EST
Temp

°C
Wind Pressure Rain
since 9am
mm
Weather Cloud Vis
km
Sea
Height
m
Swell
Dir
 
Speed
knots
Gust
knots
hPa Trend Height
m
Period
s
Dir
30/11:30pm 24.3 NNW 14 19 1007.8 - 0.0 - - - - - - -
30/11:00pm 24.3 NNW 14 18 1008.0 - 0.0 - - - - - - -
30/10:30pm 24.3 NNW 13 17 1008.1 - 0.0 - - - - - - -
30/10:00pm 24.3 NNW 13 17 1008.1 - 0.0 - - - - - - -
30/09:30pm 24.3 N 13 16 1008.1 - 0.0 - - - - - - -
30/09:00pm 24.1 N 12 15 1008.0 - 0.0 - - - - - - -
30/08:30pm 24.1 N 11 15 1007.6 - 0.0 - - - - - - -
30/08:00pm 24.0 N 12 16 1007.5 - 0.0 - - - - - - -
30/07:30pm 24.2 N 12 16 1007.3 - 0.0 - - - - - - -
30/07:00pm 23.8 N 12 15 1007.2 - 0.0 - - - - - - -
30/06:30pm 23.8 N 13 17 1007.0 - 0.0 - - - - - - -
30/06:00pm 24.0 NNE 11 15 1006.8 - 0.0 - - - - - - -
30/05:30pm 24.3 N 10 13 1006.8 - 0.0 - - - - - - -
30/05:00pm 24.3 NNE 10 13 1006.7 - 0.0 - - - - - - -
30/04:30pm 24.4 NE 11 14 1006.5 - 0.0 - - - - - - -
30/04:00pm 24.6 NE 11 14 1006.6 - 0.0 - - - - - - -
30/03:30pm 24.6 NE 10 15 1006.7 - 0.0 - - - - - - -
30/03:00pm 25.3 NE 10 13 1007.0 - 0.0 - - - - - - -
30/02:30pm 25.9 NNE 9 13 1007.3 - 0.0 - - - - - - -
30/02:00pm 25.6 NNE 9 12 1007.7 - 0.0 - - - - - - -
30/01:30pm 25.8 N 9 12 1008.0 - 0.0 - - - - - - -
30/01:00pm 26.9 NNE 8 11 1008.4 - 0.0 - - - - - - -
30/12:30pm 26.2 NNE 7 10 1008.7 - 0.0 - - - - - - -
30/12:00pm 24.5 N 7 9 1009.1 - 0.0 - - - - - - -
30/11:30am 24.0 N 6 7 1009.4 - 0.0 - - - - - - -
30/11:00am 23.9 NNE 6 9 1009.6 - 0.0 - - - - - - -
30/10:30am 22.7 NE 9 12 1009.8 - 0.0 - - - - - - -
30/10:00am 22.3 ENE 12 15 1009.7 - 0.0 - - - - - - -
30/09:30am 22.8 E 14 16 1009.7 - 0.0 - - - - - - -
30/09:00am 22.7 E 11 15 1009.7 - 0.0 - - - - - - -
30/08:30am 22.3 ESE 7 8 1009.7 - 0.0 - - - - - - -
30/08:00am 21.8 SE 13 16 1009.5 - 0.0 - - - - - - -
30/07:30am 23.6 ESE 8 10 1009.3 - 0.0 - - - - - - -
30/07:00am 23.1 ESE 9 11 1009.1 - 0.0 - - - - - - -
30/06:30am 22.6 ESE 11 14 1008.9 - 0.0 - - - - - - -
30/06:00am 22.4 E 12 15 1008.7 - 0.0 - - - - - - -
30/05:30am 21.9 ESE 13 15 1008.4 - 0.0 - - - - - - -
30/05:00am 21.8 ESE 16 20 1007.9 - 0.0 - - - - - - -
30/04:30am 21.7 SE 19 23 1007.7 - 0.0 - - - - - - -
30/04:00am 21.5 SE 19 23 1007.7 - 0.0 - - - - - - -
30/03:30am 21.8 SE 19 23 1007.8 - 0.0 - - - - - - -
30/03:00am 22.0 ESE 12 15 1008.0 - 0.0 - - - - - - -
30/02:30am 22.2 ESE 15 18 1008.0 - 0.0 - - - - - - -
30/02:00am 22.1 E 12 16 1008.1 - 0.0 - - - - - - -
30/01:30am 22.0 ESE 15 18 1008.3 - 0.0 - - - - - - -
30/01:00am 21.9 ESE 19 23 1008.4 - 0.0 - - - - - - -
30/12:30am 22.8 ESE 12 14 1008.7 - 0.0 - - - - - - -
30/12:00am 22.3 ESE 17 20 1008.8 - 0.0 - - - - - - -
 
Date/Time
EST
Temp

°C
Wind Pressure Rain
since 9am
mm
Weather Cloud Vis
km
Sea
Height
m
Swell
Dir
 
Speed
knots
Gust
knots
hPa Trend Height
m
Period
s
Dir
29/11:30pm 22.4 ESE 20 24 1009.0 - 0.0 - - - - - - -
29/11:00pm 23.2 ESE 18 25 1009.0 - 0.0 - - - - - - -
29/10:30pm 23.5 ESE 13 16 1009.3 - 0.0 - - - - - - -
29/10:00pm 23.4 ESE 19 26 1009.1 - 0.0 - - - - - - -
29/09:30pm 23.8 ESE 17 20 1009.4 - 0.0 - - - - - - -
29/09:00pm 23.9 E 16 19 1009.2 - 0.0 - - - - - - -
29/08:30pm 24.0 ESE 16 20 1009.0 - 0.0 - - - - - - -
29/08:00pm 23.9 ESE 17 20 1008.7 - 0.0 - - - - - - -
29/07:30pm 23.8 ESE 18 22 1008.5 - 0.0 - - - - - - -
29/07:00pm 23.8 ESE 18 21 1008.2 - 0.0 - - - - - - -
29/06:30pm 23.9 ESE 17 19 1007.8 - 0.0 - - - - - - -
29/06:00pm 24.1 ESE 17 20 1007.5 - 0.0 - - - - - - -
29/05:30pm 24.2 ESE 20 23 1007.1 - 0.0 - - - - - - -
29/05:00pm 24.5 SE 20 24 1006.6 - 0.0 - - - - - - -
29/04:30pm 24.9 ESE 19 23 1006.6 - 0.0 - - - - - - -
29/04:00pm 24.7 SE 20 23 1006.4 - 0.0 - - - - - - -
29/03:30pm 25.0 SE 19 23 1006.5 - 0.0 - - - - - - -
29/03:00pm 25.3 SE 20 24 1006.6 - 0.0 - - - - - - -
29/02:30pm 25.0 SE 21 25 1006.7 - 0.0 - - - - - - -
29/02:00pm 25.3 SE 20 25 1006.9 - 0.0 - - - - - - -
29/01:30pm 25.3 SE 22 26 1007.0 - 0.0 - - - - - - -
29/01:00pm 25.1 SE 23 29 1007.0 - 0.0 - - - - - - -
29/12:30pm 25.0 SSE 24 30 1007.4 - 0.0 - - - - - - -
29/12:00pm 24.4 SSE 25 30 1007.4 - 0.0 - - - - - - -
29/11:30am 24.7 SSE 25 31 1007.6 - 0.0 - - - - - - -
29/11:00am 24.2 SSE 23 30 1007.9 - 0.0 - - - - - - -
29/10:30am 23.7 SSE 21 29 1008.1 - 0.0 - - - - - - -
29/10:00am 24.6 SSE 22 29 1008.0 - 0.0 - - - - - - -
29/09:30am 22.9 SSE 21 28 1008.0 - 0.0 - - - - - - -
29/09:00am 23.5 SSE 21 28 1007.7 - 0.0 - - - - - - -
29/08:30am 23.5 SSE 20 28 1007.9 - 0.0 - - - - - - -
29/08:00am 23.4 SSE 21 29 1007.8 - 0.0 - - - - - - -
29/07:30am 22.6 SSE 22 29 1007.5 - 0.0 - - - - - - -
29/07:00am 22.3 SSE 25 35 1006.8 - 0.0 - - - - - - -
29/06:51am 22.3 SSE 25 35 1006.6 - 0.0 - - - - - - -
29/06:30am 22.3 SSE 22 30 1006.9 - 0.0 - - - - - - -
29/06:10am 22.2 SSE 23 34 1006.7 - 0.0 - - - - - - -
29/06:00am 22.2 SSE 22 30 1006.8 - 0.0 - - - - - - -
29/05:30am 22.2 SSE 23 30 1006.4 - 0.0 - - - - - - -
29/05:03am 22.0 SSE 19 29 1006.2 - 0.0 - - - - - - -
29/05:00am 22.0 SSE 20 29 1006.3 - 0.0 - - - - - - -
29/04:30am 22.0 SSE 22 29 1005.9 - 0.0 - - - - - - -
29/04:00am 21.9 SSE 21 29 1005.6 - 0.0 - - - - - - -
29/03:30am 22.1 SSE 20 27 1005.9 - 0.0 - - - - - - -
29/03:00am 22.3 SSE 19 25 1005.6 - 0.0 - - - - - - -
29/02:30am 22.3 SSE 22 28 1005.5 - 0.0 - - - - - - -
29/02:21am 22.4 SSE 21 31 1005.4 - 0.0 - - - - - - -
29/02:00am 22.4 SSE 22 29 1005.6 - 0.0 - - - - - - -
29/01:30am 22.3 SSE 24 31 1005.6 - 0.0 - - - - - - -
29/01:00am 22.6 SSE 24 32 1006.0 - 0.0 - - - - - - -
29/12:30am 22.8 SSE 24 34 1005.8 - 0.0 - - - - - - -
29/12:24am 22.7 SSE 24 34 1005.9 - 0.0 - - - - - - -
29/12:00am 22.7 SSE 23 30 1006.3 - 0.0 - - - - - - -
 
Date/Time
EST
Temp

°C
Wind Pressure Rain
since 9am
mm
Weather Cloud Vis
km
Sea
Height
m
Swell
Dir
 
Speed
knots
Gust
knots
hPa Trend Height
m
Period
s
Dir
28/11:30pm 22.6 SSE 23 30 1006.8 - 0.0 - - - - - - -
28/11:00pm 22.7 SSE 23 31 1006.9 - 0.0 - - - - - - -
28/10:30pm 23.0 SSE 23 31 1006.6 - 0.0 - - - - - - -
28/10:00pm 22.6 SSE 22 31 1006.6 - 0.0 - - - - - - -
28/09:50pm 22.6 SSE 23 33 1006.6 - 0.0 - - - - - - -
28/09:30pm 22.5 S 26 33 1006.6 - 0.0 - - - - - - -
28/09:16pm 22.8 SSE 23 35 1006.7 - 0.0 - - - - - - -
28/09:00pm 22.9 SSE 23 32 1006.5 - 0.0 - - - - - - -
28/08:30pm 22.7 SSE 25 33 1006.1 - 0.0 - - - - - - -
28/08:03pm 23.0 SSE 24 34 1006.3 - 0.0 - - - - - - -
28/08:00pm 22.9 SSE 24 33 1006.3 - 0.0 - - - - - - -
28/07:32pm 22.9 SSE 21 31 1006.3 - 0.0 - - - - - - -
28/07:30pm 22.9 SSE 22 31 1006.2 - 0.0 - - - - - - -
28/07:15pm 23.0 SSE 25 35 1005.9 - 0.0 - - - - - - -
28/07:00pm 23.0 SSE 23 30 1006.1 - 0.0 - - - - - - -
28/06:44pm 22.2 SSE 27 37 1006.1 - 0.0 - - - - - - -
28/06:30pm 23.4 SE 27 33 1005.4 - 0.0 - - - - - - -
28/06:00pm 23.3 SE 31 36 1004.8 - 0.0 - - - - - - -
28/05:30pm 23.4 SSE 27 37 1004.4 - 0.0 - - - - - - -
28/05:29pm 23.3 SSE 27 37 1004.3 - 0.0 - - - - - - -
28/05:00pm 23.3 SSE 25 31 1004.8 - 0.0 - - - - - - -
28/04:30pm 23.7 SSE 27 34 1004.3 - 0.0 - - - - - - -
28/04:00pm 23.3 SSE 26 32 1004.7 - 0.0 - - - - - - -
28/03:30pm 23.0 SSE 30 36 1004.3 - 0.0 - - - - - - -
28/03:00pm 23.0 SSE 31 37 1004.2 - 0.0 - - - - - - -
28/02:30pm 23.0 SSE 33 39 1004.0 - 0.0 - - - - - - -
28/02:00pm 22.8 SSE 28 34 1004.5 - 0.0 - - - - - - -
28/01:30pm 22.8 SSE 27 34 1004.7 - 0.0 - - - - - - -
28/01:00pm 23.5 SSE 26 31 1004.9 - 0.0 - - - - - - -
28/12:30pm 23.6 SSE 23 31 1005.1 - 0.0 - - - - - - -
28/12:22pm 23.4 SSE 23 33 1005.1 - 0.0 - - - - - - -
28/12:00pm 23.4 SSE 24 32 1005.3 - 0.0 - - - - - - -
28/11:49am 23.3 SSE 23 33 1005.3 - 0.0 - - - - - - -
28/11:30am 23.3 SSE 24 31 1005.2 - 0.0 - - - - - - -
28/11:00am 23.2 SSE 22 30 1005.4 - 0.0 - - - - - - -
28/10:30am 23.3 SSE 21 31 1005.4 - 0.0 - - - - - - -
28/10:01am 22.9 SSE 21 32 1005.4 - 0.0 - - - - - - -
28/10:00am 22.9 SSE 21 30 1005.4 - 0.0 - - - - - - -
28/09:30am 23.5 SSE 22 30 1005.1 - 0.0 - - - - - - -
28/09:00am 22.8 SSE 22 28 1005.0 - 1.2 - - - - - - -
28/08:30am 22.5 SSE 24 30 1004.5 - 1.2 - - - - - - -
28/08:00am 22.4 SSE 24 32 1004.5 - 1.2 - - - - - - -
28/07:30am 21.7 SSE 22 29 1004.8 - 1.2 - - - - - - -
28/07:00am 21.9 SSE 23 32 1004.5 - 1.0 - - - - - - -
28/06:30am 21.6 SSE 22 30 1004.5 - 0.8 - - - - - - -
28/06:01am 21.6 SSE 23 33 1004.2 - 0.6 - - - - - - -
28/06:00am 21.4 SSE 24 33 1004.2 - 0.6 Rain - - - - - -
28/05:30am 21.8 SSE 23 32 1004.0 - 0.4 - - - - - - -
28/05:00am 22.1 SSE 24 31 1003.7 - 0.4 - - - - - - -

Other Formats:

Comma delimited format used in spreadsheet applications
http://www.bom.gov.au/fwo/IDQ60701/IDQ60701.94594.axf

JavaScript Object Notation format (JSON) in row-major order
http://www.bom.gov.au/fwo/IDQ60701/IDQ60701.94594.json